createdAt,value
2018-03-17T00:00:41.700Z,4.22
2018-03-17T00:03:09.198Z,5.35
2018-03-17T00:05:36.714Z,4.40
2018-03-17T00:08:04.991Z,4.68
2018-03-17T00:10:32.510Z,4.10
2018-03-17T00:13:00.033Z,4.95
2018-03-17T00:15:27.554Z,6.60
2018-03-17T00:17:55.834Z,5.75
2018-03-17T00:20:24.114Z,3.78
2018-03-17T00:22:52.390Z,3.90
2018-03-17T00:25:20.683Z,4.05
2018-03-17T00:27:48.192Z,4.10
2018-03-17T00:30:15.691Z,4.55
2018-03-17T00:32:43.979Z,4.10
2018-03-17T00:35:12.255Z,4.22
2018-03-17T00:37:39.778Z,3.97
2018-03-17T00:40:07.288Z,4.90
2018-03-17T00:42:34.823Z,4.85
2018-03-17T00:45:02.331Z,5.40
2018-03-17T00:47:29.851Z,4.85
2018-03-17T00:49:57.355Z,7.53
2018-03-17T00:52:24.877Z,6.78
2018-03-17T00:54:53.176Z,5.20
2018-03-17T00:57:20.689Z,5.97
2018-03-17T00:59:48.199Z,7.70
2018-03-17T01:02:15.724Z,9.68
2018-03-17T01:04:43.999Z,9.05
2018-03-17T01:07:12.292Z,8.48
2018-03-17T01:09:39.799Z,9.35
2018-03-17T01:12:07.324Z,8.60
2018-03-17T01:14:34.828Z,8.00
2018-03-17T01:17:02.367Z,7.53
2018-03-17T01:19:29.866Z,6.85
2018-03-17T01:21:58.154Z,5.90
2018-03-17T01:24:26.421Z,5.35
2018-03-17T01:26:54.715Z,6.85
2018-03-17T01:29:22.215Z,6.95
2018-03-17T01:31:49.745Z,6.78
2018-03-17T01:34:17.248Z,6.80
2018-03-17T01:36:44.742Z,6.03
2018-03-17T01:39:13.021Z,6.12
2018-03-17T01:41:41.305Z,6.43
2018-03-17T01:44:09.593Z,6.40
2018-03-17T01:46:37.103Z,6.00
2018-03-17T01:49:04.618Z,7.20
2018-03-17T01:51:32.130Z,7.45
2018-03-17T01:54:11.502Z,9.05
2018-03-17T01:56:39.002Z,8.40
2018-03-17T01:59:06.514Z,8.02
2018-03-17T02:01:34.775Z,7.62
2018-03-17T02:04:03.066Z,8.25
2018-03-17T02:06:31.331Z,7.28
2018-03-17T02:08:58.854Z,6.00
2018-03-17T02:11:26.355Z,7.50
2018-03-17T02:13:54.656Z,5.72
2018-03-17T02:16:22.919Z,7.40
2018-03-17T02:18:51.201Z,6.12
2018-03-17T02:21:19.474Z,6.10
2018-03-17T02:23:47.766Z,5.40
2018-03-17T02:26:15.262Z,6.12
2018-03-17T02:28:42.781Z,7.68
2018-03-17T02:31:11.047Z,6.90
2018-03-17T02:33:39.339Z,6.32
2018-03-17T02:36:06.838Z,5.62
2018-03-17T02:38:34.354Z,6.00
2018-03-17T02:41:01.859Z,5.20
2018-03-17T02:43:29.363Z,5.40
2018-03-17T02:45:57.659Z,6.10
2018-03-17T02:48:25.177Z,7.28
2018-03-17T02:50:52.703Z,8.35
2018-03-17T02:53:20.207Z,7.15
2018-03-17T02:55:47.736Z,6.70
2018-03-17T02:58:15.243Z,9.18
2018-03-17T03:00:43.535Z,9.63
2018-03-17T03:03:11.038Z,8.07
2018-03-17T03:05:38.571Z,10.25
2018-03-17T03:08:06.084Z,11.90
2018-03-17T03:10:33.611Z,13.18
2018-03-17T03:13:01.123Z,12.20
2018-03-17T03:15:28.671Z,12.85
2018-03-17T03:17:56.962Z,14.57
2018-03-17T03:20:25.259Z,14.35
2018-03-17T03:22:52.772Z,13.30
2018-03-17T03:25:20.301Z,13.52
2018-03-17T03:27:47.810Z,15.52
2018-03-17T03:30:16.100Z,13.05
2018-03-17T03:32:44.366Z,14.45
2018-03-17T03:35:13.544Z,14.48
2018-03-17T03:37:41.047Z,14.50
2018-03-17T03:40:08.571Z,14.23
2018-03-17T03:42:36.077Z,15.23
2018-03-17T03:45:03.602Z,16.12
2018-03-17T03:47:31.876Z,17.48
2018-03-17T03:50:00.179Z,15.82
2018-03-17T03:52:27.692Z,19.12
2018-03-17T03:54:55.231Z,15.70
2018-03-17T03:57:22.743Z,14.73
2018-03-17T03:59:53.051Z,18.50
2018-03-17T04:02:21.350Z,19.87
2018-03-17T04:04:49.623Z,20.20
2018-03-17T04:07:17.970Z,20.80
2018-03-17T04:09:45.471Z,22.25
2018-03-17T04:12:13.772Z,25.00
2018-03-17T04:14:41.280Z,25.00
2018-03-17T04:17:08.816Z,23.23
2018-03-17T04:19:36.368Z,22.73
2018-03-17T04:22:03.889Z,21.80
2018-03-17T04:24:31.390Z,21.35
2018-03-17T04:26:58.906Z,21.58
2018-03-17T04:29:27.226Z,22.98
2018-03-17T04:31:54.750Z,21.87
2018-03-17T04:34:22.262Z,25.60
2018-03-17T04:36:49.786Z,24.10
2018-03-17T04:39:17.286Z,25.70
2018-03-17T04:41:44.807Z,26.15
2018-03-17T04:44:12.323Z,25.80
2018-03-17T04:46:39.877Z,24.23
2018-03-17T04:49:07.387Z,24.17
2018-03-17T04:51:34.974Z,24.58
2018-03-17T04:54:02.488Z,22.50
2018-03-17T04:56:30.780Z,25.67
2018-03-17T04:58:58.287Z,23.92
2018-03-17T05:01:25.811Z,25.08
2018-03-17T05:03:53.314Z,26.37
2018-03-17T05:06:20.841Z,24.23
2018-03-17T05:08:48.354Z,27.30
2018-03-17T05:11:16.642Z,25.45
2018-03-17T05:13:44.146Z,24.25
2018-03-17T05:16:11.704Z,27.92
2018-03-17T05:18:39.250Z,25.75
2018-03-17T05:21:06.756Z,26.87
2018-03-17T05:23:35.051Z,25.08
2018-03-17T05:26:03.331Z,30.45
2018-03-17T05:28:31.626Z,25.20
2018-03-17T05:30:59.149Z,26.10
2018-03-17T05:33:27.443Z,25.65
2018-03-17T05:35:55.721Z,25.23
2018-03-17T05:38:24.015Z,25.80
2018-03-17T05:40:51.524Z,25.85
2018-03-17T05:43:19.080Z,25.92
2018-03-17T05:45:46.570Z,27.08
2018-03-17T05:48:14.864Z,26.77
2018-03-17T05:50:43.142Z,30.17
2018-03-17T05:53:10.667Z,28.70
2018-03-17T05:55:38.177Z,27.40
2018-03-17T05:58:05.717Z,27.08
2018-03-17T06:00:33.223Z,27.00
2018-03-17T06:03:00.746Z,26.40
2018-03-17T06:05:28.265Z,27.58
2018-03-17T06:07:55.793Z,28.80
2018-03-17T06:10:23.355Z,28.50
2018-03-17T06:12:50.891Z,27.83
2018-03-17T06:15:18.398Z,28.90
2018-03-17T06:17:45.918Z,26.60
2018-03-17T06:20:13.432Z,27.05
2018-03-17T06:22:40.958Z,27.33
2018-03-17T06:25:08.480Z,28.65
2018-03-17T06:27:36.010Z,29.95
2018-03-17T06:30:03.543Z,27.42
2018-03-17T06:32:31.047Z,30.70
2018-03-17T06:34:58.592Z,28.98
2018-03-17T06:37:26.871Z,26.67
2018-03-17T06:39:54.406Z,26.45
2018-03-17T06:42:21.923Z,28.62
2018-03-17T06:44:49.447Z,26.35
2018-03-17T06:47:17.055Z,26.35
2018-03-17T06:49:48.368Z,27.13
2018-03-17T06:52:15.874Z,27.30
2018-03-17T06:54:43.409Z,27.33
2018-03-17T06:57:10.958Z,26.17
2018-03-17T06:59:38.496Z,28.12
2018-03-17T07:02:06.004Z,28.90
2018-03-17T07:04:33.542Z,28.38
2018-03-17T07:07:01.859Z,25.50
2018-03-17T07:09:29.354Z,26.77
2018-03-17T07:11:56.867Z,28.05
2018-03-17T07:14:24.439Z,26.08
2018-03-17T07:16:51.944Z,28.77
2018-03-17T07:19:19.496Z,26.80
2018-03-17T07:21:47.007Z,26.30
2018-03-17T07:24:14.535Z,29.42
2018-03-17T07:26:42.076Z,27.45
2018-03-17T07:29:09.575Z,28.17
2018-03-17T07:31:37.120Z,28.70
2018-03-17T07:34:05.487Z,27.58
2018-03-17T07:36:33.800Z,27.27
2018-03-17T07:39:01.303Z,27.58
2018-03-17T07:41:28.833Z,27.48
2018-03-17T07:43:56.347Z,27.02
2018-03-17T07:46:24.633Z,26.42
2018-03-17T07:48:52.945Z,28.50
2018-03-17T07:51:20.487Z,29.08
2018-03-17T07:53:48.011Z,25.98
2018-03-17T07:56:15.535Z,28.33
2018-03-17T07:58:43.052Z,28.38
2018-03-17T08:01:11.338Z,27.52
2018-03-17T08:03:38.842Z,27.33
2018-03-17T08:06:06.362Z,29.17
2018-03-17T08:08:34.631Z,25.88
2018-03-17T08:11:02.920Z,27.45
2018-03-17T08:13:30.427Z,26.50
2018-03-17T08:15:58.211Z,24.92
2018-03-17T08:18:26.485Z,30.25
2018-03-17T08:20:54.012Z,29.52
2018-03-17T08:23:21.531Z,28.65
2018-03-17T08:25:49.846Z,27.83
2018-03-17T08:28:18.168Z,31.70
2018-03-17T08:30:45.774Z,30.65
2018-03-17T08:33:13.283Z,26.15
2018-03-17T08:35:40.855Z,30.00
2018-03-17T08:38:09.139Z,30.42
2018-03-17T08:40:37.431Z,30.08
2018-03-17T08:43:04.959Z,29.33
2018-03-17T08:45:32.459Z,28.65
2018-03-17T08:47:59.995Z,27.60
2018-03-17T08:50:28.275Z,29.48
2018-03-17T08:52:56.558Z,30.20
2018-03-17T08:55:24.827Z,28.48
2018-03-17T08:57:53.124Z,27.80
2018-03-17T09:00:21.400Z,28.55
2018-03-17T09:02:48.942Z,28.40
2018-03-17T09:05:17.270Z,28.08
2018-03-17T09:07:44.803Z,29.05
2018-03-17T09:10:12.319Z,30.17
2018-03-17T09:12:39.851Z,26.67
2018-03-17T09:15:07.369Z,28.17
2018-03-17T09:17:35.667Z,26.80
2018-03-17T09:20:03.193Z,25.42
2018-03-17T09:22:31.500Z,27.13
2018-03-17T09:24:59.011Z,27.65
2018-03-17T09:27:33.344Z,26.80
2018-03-17T09:30:00.868Z,27.37
2018-03-17T09:32:28.395Z,28.65
2018-03-17T09:34:55.894Z,27.87
2018-03-17T09:37:23.435Z,26.92
2018-03-17T09:39:50.947Z,27.27
2018-03-17T09:42:18.555Z,25.67
2018-03-17T09:44:46.800Z,28.15
2018-03-17T09:47:15.118Z,28.98
2018-03-17T09:49:42.622Z,27.30
2018-03-17T09:52:10.908Z,27.27
2018-03-17T09:54:39.212Z,26.70
2018-03-17T09:57:06.740Z,26.58
2018-03-17T09:59:35.040Z,26.65
2018-03-17T10:02:02.562Z,25.27
2018-03-17T10:04:30.091Z,25.55
2018-03-17T10:06:57.600Z,26.20
2018-03-17T10:09:25.922Z,29.27
2018-03-17T10:11:53.427Z,28.17
2018-03-17T10:14:20.958Z,27.17
2018-03-17T10:16:48.473Z,30.25
2018-03-17T10:19:16.768Z,30.75
2018-03-17T10:21:44.291Z,28.45
2018-03-17T10:24:11.822Z,27.17
2018-03-17T10:26:39.335Z,27.87
2018-03-17T10:29:06.866Z,32.42
2018-03-17T10:31:34.383Z,28.42
2018-03-17T10:34:01.928Z,28.77
2018-03-17T10:36:29.445Z,29.98
2018-03-17T10:38:56.979Z,27.35
2018-03-17T10:41:24.490Z,28.55
2018-03-17T10:43:52.787Z,30.12
2018-03-17T10:46:20.306Z,28.65
2018-03-17T10:48:47.826Z,29.25
2018-03-17T10:51:15.363Z,30.42
2018-03-17T10:53:42.892Z,29.92
2018-03-17T10:56:11.931Z,30.42
2018-03-17T10:58:40.219Z,28.42
2018-03-17T11:01:13.498Z,28.10
2018-03-17T11:03:41.054Z,26.08
2018-03-17T11:06:09.400Z,29.42
2018-03-17T11:08:36.883Z,30.48
2018-03-17T11:11:04.419Z,29.12
2018-03-17T11:13:32.767Z,27.13
2018-03-17T11:16:00.301Z,28.23
2018-03-17T11:18:27.817Z,29.75
2018-03-17T11:20:56.111Z,26.12
2018-03-17T11:23:24.391Z,31.65
2018-03-17T11:25:52.696Z,31.80
2018-03-17T11:28:20.208Z,27.17
2018-03-17T11:30:48.507Z,30.50
2018-03-17T11:33:16.043Z,30.02
2018-03-17T11:35:43.575Z,29.65
2018-03-17T11:38:11.124Z,29.42
2018-03-17T11:40:38.681Z,29.27
2018-03-17T11:43:06.208Z,29.00
2018-03-17T11:45:33.722Z,29.60
2018-03-17T11:48:01.305Z,29.20
2018-03-17T11:50:28.799Z,26.75
2018-03-17T11:52:56.336Z,29.45
2018-03-17T11:55:24.623Z,29.35
2018-03-17T11:57:52.927Z,28.80
2018-03-17T12:00:20.446Z,26.87
2018-03-17T12:02:48.763Z,28.92
2018-03-17T12:05:16.511Z,28.20
2018-03-17T12:07:44.808Z,28.08
2018-03-17T12:10:12.315Z,28.40
2018-03-17T12:12:39.881Z,29.48
2018-03-17T12:15:07.391Z,26.95
2018-03-17T12:17:34.927Z,25.50
2018-03-17T12:20:02.446Z,31.35
2018-03-17T12:22:30.399Z,28.77
2018-03-17T12:24:57.906Z,31.27
2018-03-17T12:27:25.486Z,33.35
2018-03-17T12:29:53.004Z,28.67
2018-03-17T12:32:20.533Z,27.15
2018-03-17T12:34:48.270Z,27.75
2018-03-17T12:37:15.832Z,27.23
2018-03-17T12:39:43.354Z,26.77
2018-03-17T12:42:10.879Z,27.75
2018-03-17T12:44:38.399Z,23.83
2018-03-17T12:47:06.959Z,26.10
2018-03-17T12:49:34.463Z,25.40
2018-03-17T12:52:01.980Z,26.05
2018-03-17T12:54:29.511Z,26.25
2018-03-17T12:56:57.022Z,23.95
2018-03-17T12:59:24.560Z,24.02
2018-03-17T13:01:52.080Z,24.25
2018-03-17T13:04:19.608Z,25.15
2018-03-17T13:06:47.903Z,26.70
2018-03-17T13:09:15.487Z,26.00
2018-03-17T13:11:42.983Z,24.60
2018-03-17T13:14:12.202Z,24.35
2018-03-17T13:16:40.490Z,24.80
2018-03-17T13:19:19.951Z,22.48
2018-03-17T13:21:47.442Z,24.25
2018-03-17T13:24:14.972Z,24.40
2018-03-17T13:26:42.471Z,24.23
2018-03-17T13:29:10.010Z,23.62
2018-03-17T13:31:37.568Z,23.38
2018-03-17T13:34:05.096Z,24.00
2018-03-17T13:36:44.401Z,23.48
2018-03-17T13:39:12.758Z,26.17
2018-03-17T13:41:41.142Z,24.90
2018-03-17T13:44:08.710Z,25.17
2018-03-17T13:46:37.000Z,25.48
2018-03-17T13:49:05.302Z,25.55
2018-03-17T13:51:33.325Z,26.02
2018-03-17T13:54:00.861Z,23.77
2018-03-17T13:56:28.391Z,23.92
2018-03-17T13:58:55.927Z,28.12
2018-03-17T14:01:24.254Z,24.15
2018-03-17T14:03:51.775Z,23.87
2018-03-17T14:06:20.055Z,25.62
2018-03-17T14:08:48.348Z,22.85
2018-03-17T14:11:16.301Z,23.38
2018-03-17T14:13:44.850Z,22.23
2018-03-17T14:16:12.399Z,22.52
2018-03-17T14:18:39.924Z,23.45
2018-03-17T14:21:07.452Z,23.77
2018-03-17T14:23:35.739Z,24.27
2018-03-17T14:26:04.045Z,24.67
2018-03-17T14:28:31.557Z,24.40
2018-03-17T14:30:59.092Z,23.48
2018-03-17T14:33:26.608Z,21.00
2018-03-17T14:35:54.319Z,24.35
2018-03-17T14:38:21.831Z,27.87
2018-03-17T14:40:50.126Z,24.90
2018-03-17T14:43:17.647Z,23.08
2018-03-17T14:45:45.943Z,24.80
2018-03-17T14:48:14.219Z,24.90
2018-03-17T14:50:42.511Z,24.52
2018-03-17T14:53:10.035Z,23.90
2018-03-17T14:55:37.584Z,24.83
2018-03-17T14:58:05.110Z,24.92
2018-03-17T15:00:32.644Z,25.48
2018-03-17T15:03:00.923Z,24.00
2018-03-17T15:05:28.483Z,28.12
2018-03-17T15:07:56.789Z,28.17
2018-03-17T15:10:24.328Z,27.80
2018-03-17T15:12:53.542Z,27.02
2018-03-17T15:15:21.120Z,27.08
2018-03-17T15:17:48.632Z,23.40
2018-03-17T15:20:16.919Z,27.13
2018-03-17T15:22:45.216Z,26.10
2018-03-17T15:25:12.747Z,26.77
2018-03-17T15:27:41.063Z,25.52
2018-03-17T15:30:08.636Z,25.70
2018-03-17T15:32:36.206Z,22.35
2018-03-17T15:35:03.720Z,24.23
2018-03-17T15:37:32.032Z,25.23
2018-03-17T15:39:59.544Z,25.65
2018-03-17T15:42:27.066Z,25.20
2018-03-17T15:44:54.583Z,23.65
2018-03-17T15:47:22.880Z,25.02
2018-03-17T15:49:50.407Z,26.23
2018-03-17T15:52:18.698Z,28.48
2018-03-17T15:54:46.978Z,27.83
2018-03-17T15:57:14.593Z,28.33
2018-03-17T15:59:42.159Z,28.33
2018-03-17T16:02:09.697Z,27.00
2018-03-17T16:04:37.355Z,25.92
2018-03-17T16:07:05.707Z,27.05
2018-03-17T16:09:33.259Z,26.70
2018-03-17T16:12:00.867Z,31.02
2018-03-17T16:14:29.162Z,28.65
2018-03-17T16:16:57.500Z,28.50
2018-03-17T16:19:25.036Z,29.58
2018-03-17T16:21:53.097Z,31.98
2018-03-17T16:24:20.676Z,29.90
2018-03-17T16:26:48.227Z,27.98
2018-03-17T16:29:15.749Z,26.20
2018-03-17T16:31:43.271Z,26.67
2018-03-17T16:34:10.876Z,29.48
2018-03-17T16:36:38.395Z,25.60
2018-03-17T16:39:05.926Z,25.60
2018-03-17T16:41:33.457Z,25.42
2018-03-17T16:44:01.775Z,29.00
2018-03-17T16:46:29.286Z,25.05
2018-03-17T16:48:56.818Z,24.40
2018-03-17T16:51:24.962Z,21.58
2018-03-17T16:53:52.510Z,19.27
2018-03-17T16:56:20.805Z,27.25
2018-03-17T16:58:48.343Z,23.30
2018-03-17T17:01:16.663Z,25.05
2018-03-17T17:03:44.200Z,24.52
2018-03-17T17:06:11.727Z,26.95
2018-03-17T17:08:39.347Z,25.48
2018-03-17T17:11:07.634Z,25.80
2018-03-17T17:13:35.932Z,23.67
2018-03-17T17:16:03.450Z,24.25
2018-03-17T17:18:31.776Z,25.12
2018-03-17T17:20:59.289Z,26.45
2018-03-17T17:23:28.394Z,23.80
2018-03-17T17:25:56.683Z,25.60
2018-03-17T17:28:24.234Z,23.70
2018-03-17T17:30:52.763Z,23.62
2018-03-17T17:33:20.293Z,25.83
2018-03-17T17:35:47.825Z,28.10
2018-03-17T17:38:16.127Z,23.75
2018-03-17T17:40:43.645Z,28.65
2018-03-17T17:43:11.970Z,22.30
2018-03-17T17:45:39.487Z,23.08
2018-03-17T17:48:07.019Z,24.08
2018-03-17T17:50:34.547Z,23.05
2018-03-17T17:53:02.854Z,21.95
2018-03-17T17:55:30.379Z,24.75
2018-03-17T17:57:57.903Z,23.10
2018-03-17T18:00:25.432Z,20.20
2018-03-17T18:02:52.986Z,19.30
2018-03-17T18:05:20.529Z,25.95
2018-03-17T18:07:48.042Z,19.75
2018-03-17T18:10:15.565Z,22.27
2018-03-17T18:12:43.847Z,18.83
2018-03-17T18:15:11.390Z,20.58
2018-03-17T18:17:38.924Z,21.83
2018-03-17T18:20:06.500Z,19.75
2018-03-17T18:22:34.822Z,21.00
2018-03-17T18:25:02.456Z,18.40
2018-03-17T18:27:30.012Z,18.45
2018-03-17T18:29:57.555Z,21.60
2018-03-17T18:32:25.831Z,21.17
2018-03-17T18:34:54.146Z,21.23
2018-03-17T18:37:21.674Z,21.60
2018-03-17T18:39:49.971Z,20.05
2018-03-17T18:42:17.484Z,18.67
2018-03-17T18:44:45.016Z,20.33
2018-03-17T18:47:12.530Z,19.75
2018-03-17T18:49:40.834Z,21.92
2018-03-17T18:52:08.359Z,20.75
2018-03-17T18:54:36.675Z,21.33
2018-03-17T18:57:04.200Z,20.30
2018-03-17T18:59:32.491Z,21.75
2018-03-17T19:02:00.029Z,21.60
2018-03-17T19:04:27.543Z,20.58
2018-03-17T19:06:55.080Z,19.75
2018-03-17T19:09:22.623Z,19.73
2018-03-17T19:11:50.922Z,20.33
2018-03-17T19:14:18.439Z,17.37
2018-03-17T19:16:45.975Z,20.60
2018-03-17T19:19:13.490Z,21.27
2018-03-17T19:21:41.789Z,22.42
2018-03-17T19:24:09.312Z,19.62
2018-03-17T19:26:37.615Z,17.65
2018-03-17T19:29:05.136Z,21.27
2018-03-17T19:31:41.831Z,21.70
2018-03-17T19:34:10.129Z,19.80
2018-03-17T19:36:37.667Z,19.98
2018-03-17T19:39:05.976Z,22.42
2018-03-17T19:41:34.913Z,18.00
2018-03-17T19:44:02.430Z,20.73
2018-03-17T19:46:30.383Z,21.73
2018-03-17T19:48:57.895Z,19.27
2018-03-17T19:51:25.435Z,19.67
2018-03-17T19:53:52.965Z,20.42
2018-03-17T19:56:20.526Z,20.20
2018-03-17T19:58:48.056Z,20.20
2018-03-17T20:01:16.358Z,23.33
2018-03-17T20:03:44.636Z,20.60
2018-03-17T20:06:12.920Z,19.42
2018-03-17T20:08:40.447Z,21.87
2018-03-17T20:11:07.961Z,21.20
2018-03-17T20:13:35.648Z,20.62
2018-03-17T20:16:03.184Z,23.75
2018-03-17T20:18:30.736Z,20.37
2018-03-17T20:20:58.257Z,22.52
2018-03-17T20:23:26.564Z,22.98
2018-03-17T20:25:54.093Z,22.98
2018-03-17T20:28:22.399Z,23.70
2018-03-17T20:30:49.907Z,22.55
2018-03-17T20:33:17.444Z,22.15
2018-03-17T20:35:44.967Z,22.83
2018-03-17T20:38:13.271Z,23.58
2018-03-17T20:40:40.786Z,19.80
2018-03-17T20:43:08.315Z,24.87
2018-03-17T20:45:35.837Z,24.35
2018-03-17T20:48:03.681Z,24.23
2018-03-17T20:50:31.967Z,24.02
2018-03-17T20:53:00.264Z,24.30
2018-03-17T20:55:27.781Z,20.88
2018-03-17T20:57:55.356Z,21.23
2018-03-17T21:00:22.855Z,23.62
2018-03-17T21:02:50.386Z,23.80
2018-03-17T21:05:18.668Z,25.02
2018-03-17T21:07:46.948Z,23.65
2018-03-17T21:10:15.256Z,23.38
2018-03-17T21:12:42.771Z,22.27
2018-03-17T21:15:11.100Z,20.77
2018-03-17T21:17:38.839Z,21.45
2018-03-17T21:20:07.130Z,24.00
2018-03-17T21:22:34.910Z,26.27
2018-03-17T21:25:02.520Z,25.65
2018-03-17T21:27:30.113Z,25.35
2018-03-17T21:29:57.672Z,22.85
2018-03-17T21:32:25.187Z,22.85
2018-03-17T21:34:52.722Z,26.67
2018-03-17T21:37:20.239Z,23.62
2018-03-17T21:39:48.194Z,26.37
2018-03-17T21:42:16.497Z,26.12
2018-03-17T21:44:44.023Z,24.25
2018-03-17T21:47:11.553Z,23.70
2018-03-17T21:49:39.332Z,24.90
2018-03-17T21:52:06.852Z,26.67
2018-03-17T21:54:34.382Z,26.95
2018-03-17T21:57:02.666Z,27.02
2018-03-17T21:59:30.962Z,24.20
2018-03-17T22:01:58.483Z,25.37
2018-03-17T22:04:26.012Z,25.85
2018-03-17T22:06:54.079Z,25.20
2018-03-17T22:09:21.604Z,28.23
2018-03-17T22:11:49.883Z,23.20
2018-03-17T22:14:17.413Z,25.48
2018-03-17T22:16:44.922Z,24.02
2018-03-17T22:19:13.195Z,24.83
2018-03-17T22:21:40.722Z,24.20
2018-03-17T22:24:09.004Z,26.27
2018-03-17T22:26:37.346Z,23.10
2018-03-17T22:29:04.844Z,25.30
2018-03-17T22:31:32.379Z,23.45
2018-03-17T22:33:59.906Z,27.02
2018-03-17T22:36:27.445Z,24.23
2018-03-17T22:38:54.963Z,21.42
2018-03-17T22:41:22.491Z,19.27
2018-03-17T22:43:50.007Z,19.35
2018-03-17T22:46:18.294Z,21.15
2018-03-17T22:48:46.837Z,23.27
2018-03-17T22:51:14.371Z,21.08
2018-03-17T22:53:41.875Z,23.42
2018-03-17T22:56:10.170Z,24.00
2018-03-17T22:58:38.442Z,23.98
2018-03-17T23:01:06.747Z,22.73
2018-03-17T23:03:34.859Z,26.37
2018-03-17T23:06:02.400Z,26.17
2018-03-17T23:08:29.905Z,23.20
2018-03-17T23:10:57.455Z,23.38
2018-03-17T23:13:25.746Z,19.50
2018-03-17T23:15:54.035Z,23.92
2018-03-17T23:18:21.581Z,25.85
2018-03-17T23:20:49.875Z,25.17
2018-03-17T23:23:18.175Z,26.33
2018-03-17T23:25:46.630Z,27.60
2018-03-17T23:28:14.916Z,24.85
2018-03-17T23:30:42.438Z,24.20
2018-03-17T23:33:09.973Z,22.45
2018-03-17T23:35:37.489Z,24.52
2018-03-17T23:38:05.787Z,23.73
2018-03-17T23:40:33.304Z,23.38
2018-03-17T23:43:00.827Z,20.95
2018-03-17T23:45:28.347Z,23.20
2018-03-17T23:47:56.651Z,23.02
2018-03-17T23:50:24.166Z,22.33
2018-03-17T23:52:52.476Z,27.10
2018-03-17T23:55:19.991Z,23.55
2018-03-17T23:57:47.521Z,22.58
